createdAt,value
2022-11-24T00:00:13.003Z,1009.81
2022-11-24T00:00:43.565Z,1009.84
2022-11-24T00:01:14.142Z,1009.88
2022-11-24T00:01:44.702Z,1009.88
2022-11-24T00:02:15.476Z,1009.87
2022-11-24T00:02:46.213Z,1009.90
2022-11-24T00:03:17.023Z,1009.90
2022-11-24T00:03:47.752Z,1009.92
2022-11-24T00:04:18.334Z,1009.92
2022-11-24T00:04:48.911Z,1009.93
2022-11-24T00:05:19.478Z,1009.93
2022-11-24T00:05:50.077Z,1009.90
2022-11-24T00:06:20.654Z,1009.93
2022-11-24T00:06:51.222Z,1009.90
2022-11-24T00:07:21.833Z,1009.94
2022-11-24T00:07:52.460Z,1009.89
2022-11-24T00:08:23.053Z,1009.94
2022-11-24T00:08:53.607Z,1009.94
2022-11-24T00:09:24.183Z,1009.91
2022-11-24T00:09:54.787Z,1009.93
2022-11-24T00:10:25.343Z,1009.93
2022-11-24T00:10:55.959Z,1009.93
2022-11-24T00:11:26.515Z,1009.92
2022-11-24T00:11:57.082Z,1009.96
2022-11-24T00:12:27.640Z,1009.97
2022-11-24T00:12:58.219Z,1009.99
2022-11-24T00:13:28.777Z,1009.98
2022-11-24T00:13:59.354Z,1009.99
2022-11-24T00:14:29.923Z,1009.98
2022-11-24T00:15:00.473Z,1009.99
2022-11-24T00:15:31.047Z,1010.00
2022-11-24T00:16:01.655Z,1010.02
2022-11-24T00:16:32.273Z,1010.05
2022-11-24T00:17:02.981Z,1010.05
2022-11-24T00:17:33.631Z,1010.03
2022-11-24T00:18:04.166Z,1010.05
2022-11-24T00:18:34.735Z,1010.05
2022-11-24T00:19:05.300Z,1010.09
2022-11-24T00:19:35.852Z,1010.09
2022-11-24T00:20:06.437Z,1010.10
2022-11-24T00:20:37.049Z,1010.10
2022-11-24T00:21:07.607Z,1010.10
2022-11-24T00:21:38.178Z,1010.10
2022-11-24T00:22:08.764Z,1010.05
2022-11-24T00:22:39.320Z,1010.09
2022-11-24T00:23:09.908Z,1010.10
2022-11-24T00:23:40.490Z,1010.10
2022-11-24T00:24:11.053Z,1010.14
2022-11-24T00:24:41.622Z,1010.11
2022-11-24T00:25:12.210Z,1010.14
2022-11-24T00:25:42.743Z,1010.11
2022-11-24T00:26:13.330Z,1010.10
2022-11-24T00:26:43.889Z,1010.13
2022-11-24T00:27:14.475Z,1010.11
2022-11-24T00:27:45.045Z,1010.13
2022-11-24T00:28:15.618Z,1010.13
2022-11-24T00:28:46.179Z,1010.17
2022-11-24T00:29:16.756Z,1010.14
2022-11-24T00:29:47.339Z,1010.16
2022-11-24T00:30:17.895Z,1010.18
2022-11-24T00:30:48.523Z,1010.23
2022-11-24T00:31:19.206Z,1010.27
2022-11-24T00:31:49.830Z,1010.25
2022-11-24T00:32:20.397Z,1010.26
2022-11-24T00:32:50.964Z,1010.25
2022-11-24T00:33:21.568Z,1010.23
2022-11-24T00:33:52.118Z,1010.28
2022-11-24T00:34:22.700Z,1010.26
2022-11-24T00:34:53.245Z,1010.27
2022-11-24T00:35:23.820Z,1010.26
2022-11-24T00:35:54.408Z,1010.29
2022-11-24T00:36:24.978Z,1010.26
2022-11-24T00:36:55.585Z,1010.23
2022-11-24T00:37:26.168Z,1010.27
2022-11-24T00:37:56.693Z,1010.27
2022-11-24T00:38:27.254Z,1010.26
2022-11-24T00:38:57.800Z,1010.27
2022-11-24T00:39:28.368Z,1010.28
2022-11-24T00:39:58.937Z,1010.30
2022-11-24T00:40:34.725Z,1010.33
2022-11-24T00:41:00.262Z,1010.31
2022-11-24T00:41:30.840Z,1010.31
2022-11-24T00:42:01.442Z,1010.29
2022-11-24T00:42:32.019Z,1010.32
2022-11-24T00:43:02.597Z,1010.32
2022-11-24T00:43:33.159Z,1010.31
2022-11-24T00:44:03.727Z,1010.35
2022-11-24T00:44:34.586Z,1010.33
2022-11-24T00:45:13.465Z,1010.32
2022-11-24T00:45:36.072Z,1010.32
2022-11-24T00:46:06.824Z,1010.34
2022-11-24T00:46:37.773Z,1010.34
2022-11-24T00:47:08.565Z,1010.36
2022-11-24T00:47:39.173Z,1010.37
2022-11-24T00:48:09.748Z,1010.37
2022-11-24T00:48:40.285Z,1010.38
2022-11-24T00:49:10.879Z,1010.42
2022-11-24T00:49:41.428Z,1010.39
2022-11-24T00:50:12.008Z,1010.37
2022-11-24T00:50:42.567Z,1010.38
2022-11-24T00:51:13.154Z,1010.39
2022-11-24T00:51:43.700Z,1010.34
2022-11-24T00:52:14.259Z,1010.35
2022-11-24T00:52:44.837Z,1010.37
2022-11-24T00:53:15.365Z,1010.37
2022-11-24T00:53:45.932Z,1010.37
2022-11-24T00:54:16.521Z,1010.40
2022-11-24T00:54:47.049Z,1010.43
2022-11-24T00:55:17.627Z,1010.44
2022-11-24T00:55:48.231Z,1010.43
2022-11-24T00:56:18.762Z,1010.44
2022-11-24T00:56:49.336Z,1010.49
2022-11-24T00:57:19.897Z,1010.47
2022-11-24T00:57:50.446Z,1010.49
2022-11-24T00:58:21.047Z,1010.50
2022-11-24T00:58:51.618Z,1010.52
2022-11-24T00:59:22.171Z,1010.54
2022-11-24T00:59:52.741Z,1010.53
2022-11-24T01:00:23.294Z,1010.54
2022-11-24T01:00:53.847Z,1010.57
2022-11-24T01:01:24.532Z,1010.56
2022-11-24T01:01:55.228Z,1010.58
2022-11-24T01:02:25.880Z,1010.58
2022-11-24T01:02:56.548Z,1010.59
2022-11-24T01:03:27.166Z,1010.60
2022-11-24T01:03:57.736Z,1010.61
2022-11-24T01:04:28.278Z,1010.61
2022-11-24T01:04:58.819Z,1010.62
2022-11-24T01:05:29.362Z,1010.62
2022-11-24T01:05:59.942Z,1010.64
2022-11-24T01:06:30.499Z,1010.67
2022-11-24T01:07:01.061Z,1010.69
2022-11-24T01:07:31.713Z,1010.70
2022-11-24T01:08:02.284Z,1010.74
2022-11-24T01:08:32.832Z,1010.74
2022-11-24T01:09:03.384Z,1010.74
2022-11-24T01:09:33.960Z,1010.79
2022-11-24T01:10:04.509Z,1010.78
2022-11-24T01:10:35.121Z,1010.78
2022-11-24T01:11:05.679Z,1010.81
2022-11-24T01:11:36.217Z,1010.83
2022-11-24T01:12:06.790Z,1010.80
2022-11-24T01:12:37.359Z,1010.83
2022-11-24T01:13:07.949Z,1010.84
2022-11-24T01:13:38.525Z,1010.81
2022-11-24T01:14:09.128Z,1010.82
2022-11-24T01:14:39.654Z,1010.82
2022-11-24T01:15:10.185Z,1010.86
2022-11-24T01:15:40.792Z,1010.86
2022-11-24T01:16:11.395Z,1010.87
2022-11-24T01:16:41.993Z,1010.83
2022-11-24T01:17:12.577Z,1010.84
2022-11-24T01:17:43.116Z,1010.83
2022-11-24T01:18:13.676Z,1010.85
2022-11-24T01:18:44.256Z,1010.85
2022-11-24T01:19:15.022Z,1010.88
2022-11-24T01:19:45.549Z,1010.86
2022-11-24T01:20:16.100Z,1010.84
2022-11-24T01:20:46.675Z,1010.85
2022-11-24T01:21:17.256Z,1010.85
2022-11-24T01:21:47.866Z,1010.83
2022-11-24T01:22:18.419Z,1010.88
2022-11-24T01:22:48.988Z,1010.84
2022-11-24T01:23:19.562Z,1010.86
2022-11-24T01:23:50.113Z,1010.87
2022-11-24T01:24:20.671Z,1010.87
2022-11-24T01:24:51.246Z,1010.86
2022-11-24T01:25:21.803Z,1010.88
2022-11-24T01:25:52.356Z,1010.89
2022-11-24T01:26:22.934Z,1010.92
2022-11-24T01:26:53.474Z,1010.92
2022-11-24T01:27:24.072Z,1010.94
2022-11-24T01:27:54.644Z,1010.93
2022-11-24T01:28:25.219Z,1010.94
2022-11-24T01:28:55.775Z,1010.96
2022-11-24T01:29:26.335Z,1010.96
2022-11-24T01:29:56.924Z,1010.99
2022-11-24T01:30:27.514Z,1010.99
2022-11-24T01:30:58.204Z,1011.02
2022-11-24T01:31:28.798Z,1011.00
2022-11-24T01:31:59.346Z,1011.02
2022-11-24T01:32:29.891Z,1011.04
2022-11-24T01:33:00.456Z,1011.05
2022-11-24T01:33:31.004Z,1011.08
2022-11-24T01:34:01.554Z,1011.07
2022-11-24T01:34:32.591Z,1011.09
2022-11-24T01:35:02.846Z,1011.09
2022-11-24T01:35:33.403Z,1011.10
2022-11-24T01:36:03.986Z,1011.11
2022-11-24T01:36:34.592Z,1011.12
2022-11-24T01:37:05.160Z,1011.14
2022-11-24T01:37:35.759Z,1011.14
2022-11-24T01:38:06.325Z,1011.17
2022-11-24T01:38:36.889Z,1011.18
2022-11-24T01:39:07.435Z,1011.19
2022-11-24T01:39:37.981Z,1011.18
2022-11-24T01:40:08.534Z,1011.22
2022-11-24T01:40:39.103Z,1011.24
2022-11-24T01:41:09.682Z,1011.25
2022-11-24T01:41:40.289Z,1011.28
2022-11-24T01:42:10.819Z,1011.30
2022-11-24T01:42:41.394Z,1011.31
2022-11-24T01:43:11.975Z,1011.32
2022-11-24T01:43:42.569Z,1011.33
2022-11-24T01:44:13.128Z,1011.34
2022-11-24T01:44:43.683Z,1011.36
2022-11-24T01:45:14.214Z,1011.36
2022-11-24T01:45:44.819Z,1011.38
2022-11-24T01:46:15.427Z,1011.40
2022-11-24T01:46:45.990Z,1011.40
2022-11-24T01:47:16.572Z,1011.42
2022-11-24T01:47:47.162Z,1011.45
2022-11-24T01:48:17.857Z,1011.45
2022-11-24T01:48:48.471Z,1011.46
2022-11-24T01:49:19.042Z,1011.49
2022-11-24T01:49:49.621Z,1011.49
2022-11-24T01:50:20.181Z,1011.48
2022-11-24T01:50:50.757Z,1011.48
2022-11-24T01:51:21.304Z,1011.47
2022-11-24T01:51:51.850Z,1011.47
2022-11-24T01:52:22.391Z,1011.49
2022-11-24T01:52:53.001Z,1011.50
2022-11-24T01:53:23.572Z,1011.50
2022-11-24T01:53:54.098Z,1011.51
2022-11-24T01:54:24.669Z,1011.52
2022-11-24T01:54:55.211Z,1011.53
2022-11-24T01:55:25.767Z,1011.54
2022-11-24T01:55:56.351Z,1011.55
2022-11-24T01:56:26.922Z,1011.55
2022-11-24T01:56:57.475Z,1011.55
2022-11-24T01:57:28.004Z,1011.57
2022-11-24T01:57:58.561Z,1011.57
2022-11-24T01:58:29.095Z,1011.54
2022-11-24T01:58:59.711Z,1011.54
2022-11-24T01:59:30.275Z,1011.53
2022-11-24T02:00:00.860Z,1011.51
2022-11-24T02:00:31.424Z,1011.51
2022-11-24T02:01:02.043Z,1011.49
2022-11-24T02:01:32.635Z,1011.51
2022-11-24T02:02:03.185Z,1011.53
2022-11-24T02:02:33.799Z,1011.53
2022-11-24T02:03:04.439Z,1011.51
2022-11-24T02:03:35.008Z,1011.52
2022-11-24T02:04:05.557Z,1011.51
2022-11-24T02:04:36.384Z,1011.50
2022-11-24T02:05:07.147Z,1011.51
2022-11-24T02:05:37.714Z,1011.55
2022-11-24T02:06:08.272Z,1011.53
2022-11-24T02:06:38.816Z,1011.57
2022-11-24T02:07:09.438Z,1011.53
2022-11-24T02:07:40.090Z,1011.55
2022-11-24T02:08:10.719Z,1011.57
2022-11-24T02:08:41.307Z,1011.57
2022-11-24T02:09:11.902Z,1011.59
2022-11-24T02:09:42.486Z,1011.59
2022-11-24T02:10:13.075Z,1011.60
2022-11-24T02:10:43.628Z,1011.61
2022-11-24T02:11:14.207Z,1011.61
2022-11-24T02:11:44.747Z,1011.64
2022-11-24T02:12:15.303Z,1011.64
2022-11-24T02:12:45.840Z,1011.65
2022-11-24T02:13:16.399Z,1011.65
2022-11-24T02:13:46.981Z,1011.66
2022-11-24T02:14:17.541Z,1011.66
2022-11-24T02:14:48.105Z,1011.66
2022-11-24T02:15:18.666Z,1011.69
2022-11-24T02:15:49.351Z,1011.71
2022-11-24T02:16:19.947Z,1011.72
2022-11-24T02:16:50.487Z,1011.73
2022-11-24T02:17:21.049Z,1011.75
2022-11-24T02:17:51.614Z,1011.73
2022-11-24T02:18:22.160Z,1011.73
2022-11-24T02:18:52.743Z,1011.73
2022-11-24T02:19:23.297Z,1011.74
2022-11-24T02:19:53.870Z,1011.74
2022-11-24T02:20:24.451Z,1011.76
2022-11-24T02:20:55.006Z,1011.76
2022-11-24T02:21:25.582Z,1011.78
2022-11-24T02:21:56.139Z,1011.79
2022-11-24T02:22:26.722Z,1011.77
2022-11-24T02:22:57.264Z,1011.78
2022-11-24T02:23:27.827Z,1011.76
2022-11-24T02:23:58.366Z,1011.76
2022-11-24T02:24:28.912Z,1011.76
2022-11-24T02:24:59.508Z,1011.77
2022-11-24T02:25:30.060Z,1011.76
2022-11-24T02:26:00.640Z,1011.76
2022-11-24T02:26:31.208Z,1011.80
2022-11-24T02:27:01.778Z,1011.82
2022-11-24T02:27:32.371Z,1011.85
2022-11-24T02:28:02.907Z,1011.84
2022-11-24T02:28:33.479Z,1011.84
2022-11-24T02:29:04.047Z,1011.86
2022-11-24T02:29:34.620Z,1011.86
2022-11-24T02:30:05.172Z,1011.86
2022-11-24T02:30:35.732Z,1011.85
2022-11-24T02:31:06.369Z,1011.86
2022-11-24T02:31:37.025Z,1011.85
2022-11-24T02:32:07.623Z,1011.86
2022-11-24T02:32:38.189Z,1011.87
2022-11-24T02:33:08.760Z,1011.89
2022-11-24T02:33:39.340Z,1011.88
2022-11-24T02:34:09.877Z,1011.89
2022-11-24T02:34:40.471Z,1011.89
2022-11-24T02:35:11.039Z,1011.89
2022-11-24T02:35:41.602Z,1011.91
2022-11-24T02:36:12.158Z,1011.90
2022-11-24T02:36:42.726Z,1011.90
2022-11-24T02:37:13.301Z,1011.89
2022-11-24T02:37:43.847Z,1011.88
2022-11-24T02:38:14.396Z,1011.91
2022-11-24T02:38:44.988Z,1011.90
2022-11-24T02:39:15.527Z,1011.89
2022-11-24T02:39:46.124Z,1011.89
2022-11-24T02:40:16.704Z,1011.89
2022-11-24T02:40:47.256Z,1011.90
2022-11-24T02:41:17.826Z,1011.90
2022-11-24T02:41:48.392Z,1011.92
2022-11-24T02:42:18.954Z,1011.92
2022-11-24T02:42:49.544Z,1011.92
2022-11-24T02:43:20.078Z,1011.93
2022-11-24T02:43:50.651Z,1011.93
2022-11-24T02:44:21.215Z,1011.93
2022-11-24T02:44:51.817Z,1011.93
2022-11-24T02:45:22.358Z,1011.95
2022-11-24T02:45:53.051Z,1011.92
2022-11-24T02:46:23.670Z,1011.95
2022-11-24T02:46:54.216Z,1011.95
2022-11-24T02:47:24.758Z,1011.94
2022-11-24T02:47:55.332Z,1011.94
2022-11-24T02:48:25.901Z,1011.96
2022-11-24T02:48:56.445Z,1011.97
2022-11-24T02:49:27.011Z,1011.99
2022-11-24T02:49:57.568Z,1011.99
2022-11-24T02:50:28.096Z,1011.99
2022-11-24T02:50:58.669Z,1012.02
2022-11-24T02:51:29.246Z,1012.02
2022-11-24T02:51:59.832Z,1012.03
2022-11-24T02:52:30.369Z,1012.03
2022-11-24T02:53:00.927Z,1012.02
2022-11-24T02:53:31.495Z,1012.01
2022-11-24T02:54:02.094Z,1012.01
2022-11-24T02:54:33.030Z,1012.04
2022-11-24T02:55:03.264Z,1012.04
2022-11-24T02:55:33.833Z,1012.04
2022-11-24T02:56:04.436Z,1012.02
2022-11-24T02:56:35.011Z,1012.04
2022-11-24T02:57:05.578Z,1012.04
2022-11-24T02:57:36.155Z,1012.06
2022-11-24T02:58:06.763Z,1012.06
2022-11-24T02:58:37.306Z,1012.06
2022-11-24T02:59:07.895Z,1012.04
2022-11-24T02:59:38.498Z,1012.03
2022-11-24T03:00:09.055Z,1012.05
2022-11-24T03:00:39.647Z,1012.04
2022-11-24T03:01:10.338Z,1012.03
2022-11-24T03:01:41.019Z,1012.03
2022-11-24T03:02:11.600Z,1012.05
2022-11-24T03:02:42.215Z,1012.06
2022-11-24T03:03:12.849Z,1012.07
2022-11-24T03:03:43.415Z,1012.08
2022-11-24T03:04:13.975Z,1012.09
2022-11-24T03:04:44.521Z,1012.13
2022-11-24T03:05:15.062Z,1012.15
2022-11-24T03:05:45.598Z,1012.15
2022-11-24T03:06:16.192Z,1012.19
2022-11-24T03:06:46.770Z,1012.19
2022-11-24T03:07:17.398Z,1012.21
2022-11-24T03:07:48.076Z,1012.20
2022-11-24T03:08:18.626Z,1012.18
2022-11-24T03:08:49.192Z,1012.20
2022-11-24T03:09:19.790Z,1012.20
2022-11-24T03:09:50.321Z,1012.21
2022-11-24T03:10:20.895Z,1012.22
2022-11-24T03:10:51.465Z,1012.22
2022-11-24T03:11:22.041Z,1012.21
2022-11-24T03:11:52.612Z,1012.22
2022-11-24T03:12:23.172Z,1012.23
2022-11-24T03:12:53.770Z,1012.24
2022-11-24T03:13:24.354Z,1012.22
2022-11-24T03:13:54.886Z,1012.24
2022-11-24T03:14:25.428Z,1012.25
2022-11-24T03:14:56.008Z,1012.24
2022-11-24T03:15:26.586Z,1012.27
2022-11-24T03:15:57.187Z,1012.25
2022-11-24T03:16:27.814Z,1012.24
2022-11-24T03:16:58.394Z,1012.25
2022-11-24T03:17:28.941Z,1012.25
2022-11-24T03:17:59.531Z,1012.25
2022-11-24T03:18:30.074Z,1012.26
2022-11-24T03:19:00.650Z,1012.27
2022-11-24T03:19:31.216Z,1012.29
2022-11-24T03:20:04.891Z,1012.28
2022-11-24T03:20:32.637Z,1012.29
2022-11-24T03:21:03.206Z,1012.28
2022-11-24T03:21:33.766Z,1012.29
2022-11-24T03:22:04.323Z,1012.26
2022-11-24T03:22:34.902Z,1012.29
2022-11-24T03:23:05.485Z,1012.29
2022-11-24T03:23:36.046Z,1012.29
2022-11-24T03:24:06.610Z,1012.30
2022-11-24T03:24:37.193Z,1012.31
2022-11-24T03:25:07.748Z,1012.31
2022-11-24T03:25:38.324Z,1012.28
2022-11-24T03:26:08.885Z,1012.28
2022-11-24T03:26:39.469Z,1012.27
2022-11-24T03:27:10.012Z,1012.29
2022-11-24T03:27:40.590Z,1012.28
2022-11-24T03:28:11.154Z,1012.28
2022-11-24T03:28:41.763Z,1012.30
2022-11-24T03:29:12.318Z,1012.32
2022-11-24T03:29:42.886Z,1012.34
2022-11-24T03:30:13.409Z,1012.33
2022-11-24T03:30:44.014Z,1012.35
2022-11-24T03:31:14.621Z,1012.34
2022-11-24T03:31:45.176Z,1012.35
2022-11-24T03:32:15.703Z,1012.38
2022-11-24T03:32:46.284Z,1012.39
2022-11-24T03:33:16.852Z,1012.38
2022-11-24T03:33:47.433Z,1012.39
2022-11-24T03:34:18.004Z,1012.42
2022-11-24T03:34:48.536Z,1012.43
2022-11-24T03:35:19.107Z,1012.41
2022-11-24T03:35:49.702Z,1012.41
2022-11-24T03:36:20.258Z,1012.42
2022-11-24T03:36:50.824Z,1012.41
2022-11-24T03:37:21.390Z,1012.41
2022-11-24T03:37:51.960Z,1012.41
2022-11-24T03:38:22.530Z,1012.41
2022-11-24T03:38:53.115Z,1012.41
2022-11-24T03:39:23.678Z,1012.41
2022-11-24T03:39:54.262Z,1012.41
2022-11-24T03:40:24.835Z,1012.41
2022-11-24T03:40:55.418Z,1012.40
2022-11-24T03:41:25.999Z,1012.39
2022-11-24T03:41:56.543Z,1012.39
2022-11-24T03:42:27.112Z,1012.37
2022-11-24T03:42:57.684Z,1012.37
2022-11-24T03:43:28.245Z,1012.37
2022-11-24T03:43:58.837Z,1012.36
2022-11-24T03:44:29.398Z,1012.39
2022-11-24T03:45:16.674Z,1012.38
2022-11-24T03:45:45.602Z,1012.39
2022-11-24T03:46:01.648Z,1012.39
2022-11-24T03:46:32.278Z,1012.40
2022-11-24T03:47:02.812Z,1012.41
2022-11-24T03:47:33.383Z,1012.42
2022-11-24T03:48:03.946Z,1012.44
2022-11-24T03:48:34.518Z,1012.45
2022-11-24T03:49:05.080Z,1012.46
2022-11-24T03:49:35.985Z,1012.47
2022-11-24T03:50:06.638Z,1012.46
2022-11-24T03:50:37.194Z,1012.47
2022-11-24T03:51:07.771Z,1012.48
2022-11-24T03:51:38.353Z,1012.48
2022-11-24T03:52:08.925Z,1012.47
2022-11-24T03:52:39.513Z,1012.48
2022-11-24T03:53:10.078Z,1012.48
2022-11-24T03:53:40.645Z,1012.48
2022-11-24T03:54:11.190Z,1012.46
2022-11-24T03:54:41.781Z,1012.47
2022-11-24T03:55:12.367Z,1012.48
2022-11-24T03:55:42.944Z,1012.49
2022-11-24T03:56:13.530Z,1012.48
2022-11-24T03:56:44.119Z,1012.48
2022-11-24T03:57:14.677Z,1012.49
2022-11-24T03:57:45.228Z,1012.49
2022-11-24T03:58:15.805Z,1012.51
2022-11-24T03:58:46.383Z,1012.50
2022-11-24T03:59:17.006Z,1012.51
2022-11-24T03:59:47.537Z,1012.52
2022-11-24T04:00:18.115Z,1012.51
2022-11-24T04:00:48.686Z,1012.49
2022-11-24T04:01:19.358Z,1012.50
2022-11-24T04:01:49.990Z,1012.50
2022-11-24T04:02:20.673Z,1012.48
2022-11-24T04:02:51.280Z,1012.47
2022-11-24T04:03:21.846Z,1012.48
2022-11-24T04:03:52.381Z,1012.46
2022-11-24T04:04:22.961Z,1012.45
2022-11-24T04:04:53.510Z,1012.47
2022-11-24T04:05:24.085Z,1012.49
2022-11-24T04:05:54.640Z,1012.48
2022-11-24T04:06:25.201Z,1012.47
2022-11-24T04:06:55.781Z,1012.47
2022-11-24T04:07:26.356Z,1012.47
2022-11-24T04:07:56.964Z,1012.45
2022-11-24T04:08:27.534Z,1012.45
2022-11-24T04:08:58.091Z,1012.47
2022-11-24T04:09:28.686Z,1012.45
2022-11-24T04:09:59.271Z,1012.46
2022-11-24T04:10:29.834Z,1012.46
2022-11-24T04:11:00.412Z,1012.45
2022-11-24T04:11:30.974Z,1012.42
2022-11-24T04:12:01.556Z,1012.43
2022-11-24T04:12:32.114Z,1012.46
2022-11-24T04:13:02.700Z,1012.43
2022-11-24T04:13:33.284Z,1012.45
2022-11-24T04:14:05.765Z,1012.46
2022-11-24T04:14:35.050Z,1012.47
2022-11-24T04:15:05.318Z,1012.48
2022-11-24T04:15:35.859Z,1012.49
2022-11-24T04:16:06.544Z,1012.50
2022-11-24T04:16:37.188Z,1012.53
2022-11-24T04:17:07.741Z,1012.54
2022-11-24T04:17:38.351Z,1012.55
2022-11-24T04:18:08.928Z,1012.55
2022-11-24T04:18:39.550Z,1012.56
2022-11-24T04:19:10.140Z,1012.57
2022-11-24T04:19:40.713Z,1012.56
2022-11-24T04:20:11.252Z,1012.58
2022-11-24T04:20:41.815Z,1012.58
2022-11-24T04:21:12.413Z,1012.58
2022-11-24T04:21:42.955Z,1012.57
2022-11-24T04:22:13.526Z,1012.54
2022-11-24T04:22:44.115Z,1012.54
2022-11-24T04:23:14.687Z,1012.54
2022-11-24T04:23:45.254Z,1012.52
2022-11-24T04:24:15.831Z,1012.54
2022-11-24T04:24:46.429Z,1012.54
2022-11-24T04:25:16.974Z,1012.54
2022-11-24T04:25:47.540Z,1012.54
2022-11-24T04:26:18.123Z,1012.55
2022-11-24T04:26:48.706Z,1012.56
2022-11-24T04:27:19.270Z,1012.58
2022-11-24T04:27:49.840Z,1012.58
2022-11-24T04:28:20.432Z,1012.60
2022-11-24T04:28:50.972Z,1012.61
2022-11-24T04:29:21.586Z,1012.60
2022-11-24T04:29:52.174Z,1012.61
2022-11-24T04:30:22.727Z,1012.60
2022-11-24T04:30:53.354Z,1012.62
2022-11-24T04:31:23.984Z,1012.62
2022-11-24T04:31:54.536Z,1012.63
2022-11-24T04:32:25.130Z,1012.63
2022-11-24T04:32:55.691Z,1012.64
2022-11-24T04:33:26.267Z,1012.65
2022-11-24T04:33:56.844Z,1012.66
2022-11-24T04:34:27.389Z,1012.69
2022-11-24T04:34:57.923Z,1012.71
2022-11-24T04:35:28.523Z,1012.71
2022-11-24T04:35:59.096Z,1012.73
2022-11-24T04:36:29.657Z,1012.75
2022-11-24T04:37:00.215Z,1012.76
2022-11-24T04:37:30.797Z,1012.77
2022-11-24T04:38:01.337Z,1012.78
2022-11-24T04:39:23.083Z,1012.77
2022-11-24T04:39:24.932Z,1012.80
2022-11-24T04:39:33.481Z,1012.80
2022-11-24T04:40:04.038Z,1012.80
2022-11-24T04:40:34.602Z,1012.81
2022-11-24T04:41:05.178Z,1012.81
2022-11-24T04:41:35.753Z,1012.82
2022-11-24T04:42:06.327Z,1012.81
2022-11-24T04:42:36.889Z,1012.82
2022-11-24T04:43:07.490Z,1012.83
2022-11-24T04:43:40.772Z,1012.83
2022-11-24T04:44:08.894Z,1012.82
2022-11-24T04:44:39.484Z,1012.83
2022-11-24T04:45:10.063Z,1012.83
2022-11-24T04:45:40.598Z,1012.85
2022-11-24T04:46:11.250Z,1012.84
2022-11-24T04:46:41.884Z,1012.87
2022-11-24T04:47:12.436Z,1012.86
2022-11-24T04:47:43.051Z,1012.88
2022-11-24T04:48:13.632Z,1012.88
2022-11-24T04:48:44.163Z,1012.89
2022-11-24T04:49:14.748Z,1012.89
2022-11-24T04:49:45.287Z,1012.91
2022-11-24T04:50:15.863Z,1012.91
2022-11-24T04:50:46.458Z,1012.91
2022-11-24T04:51:17.015Z,1012.93
2022-11-24T04:51:47.585Z,1012.93
2022-11-24T04:52:18.162Z,1012.94
2022-11-24T04:52:48.734Z,1012.95
2022-11-24T04:53:19.293Z,1012.95
2022-11-24T04:53:49.881Z,1012.97
2022-11-24T04:54:20.430Z,1012.94
2022-11-24T04:54:51.008Z,1012.96
2022-11-24T04:55:21.568Z,1012.97
2022-11-24T04:55:52.160Z,1012.99
2022-11-24T04:56:22.718Z,1013.00
2022-11-24T04:56:53.296Z,1013.01
2022-11-24T04:57:23.862Z,1012.98
2022-11-24T04:57:54.421Z,1013.01
2022-11-24T04:58:24.974Z,1013.00
2022-11-24T04:58:55.521Z,1013.01
2022-11-24T04:59:26.060Z,1013.02
2022-11-24T04:59:56.622Z,1013.05
2022-11-24T05:00:27.234Z,1013.04
2022-11-24T05:00:57.764Z,1013.06
2022-11-24T05:01:28.339Z,1013.05
2022-11-24T05:01:58.943Z,1013.07
2022-11-24T05:02:29.477Z,1013.08
2022-11-24T05:03:00.023Z,1013.10
2022-11-24T05:03:30.598Z,1013.13
2022-11-24T05:04:01.254Z,1013.10
2022-11-24T05:04:32.318Z,1013.13
2022-11-24T05:05:02.719Z,1013.13
2022-11-24T05:05:33.301Z,1013.12
2022-11-24T05:06:03.876Z,1013.13
2022-11-24T05:06:34.451Z,1013.16
2022-11-24T05:07:05.035Z,1013.16
2022-11-24T05:07:35.600Z,1013.14
2022-11-24T05:08:06.175Z,1013.16
2022-11-24T05:08:36.756Z,1013.14
2022-11-24T05:09:07.342Z,1013.17
2022-11-24T05:09:58.568Z,1013.17
2022-11-24T05:10:08.680Z,1013.20
2022-11-24T05:10:39.223Z,1013.22
2022-11-24T05:11:09.798Z,1013.22
2022-11-24T05:11:40.341Z,1013.22
2022-11-24T05:12:10.921Z,1013.24
2022-11-24T05:12:41.503Z,1013.24
2022-11-24T05:13:12.066Z,1013.26
2022-11-24T05:13:42.636Z,1013.27
2022-11-24T05:14:13.180Z,1013.27
2022-11-24T05:14:43.730Z,1013.29
2022-11-24T05:15:14.286Z,1013.31
2022-11-24T05:15:44.940Z,1013.33
2022-11-24T05:16:15.615Z,1013.34
2022-11-24T05:16:46.210Z,1013.34
2022-11-24T05:17:16.780Z,1013.35
2022-11-24T05:17:47.336Z,1013.36
2022-11-24T05:18:17.918Z,1013.37
2022-11-24T05:18:48.464Z,1013.39
2022-11-24T05:19:19.028Z,1013.37
2022-11-24T05:19:49.583Z,1013.40
2022-11-24T05:20:20.183Z,1013.41
2022-11-24T05:20:50.738Z,1013.44
2022-11-24T05:21:21.292Z,1013.44
2022-11-24T05:21:51.877Z,1013.45
2022-11-24T05:22:22.447Z,1013.44
2022-11-24T05:22:53.056Z,1013.46
2022-11-24T05:23:23.634Z,1013.47
2022-11-24T05:23:54.201Z,1013.45
2022-11-24T05:24:24.746Z,1013.44
2022-11-24T05:24:55.303Z,1013.47
2022-11-24T05:25:25.908Z,1013.49
2022-11-24T05:25:56.466Z,1013.48
2022-11-24T05:26:27.042Z,1013.48
2022-11-24T05:26:57.581Z,1013.53
2022-11-24T05:27:28.168Z,1013.53
2022-11-24T05:27:58.729Z,1013.55
2022-11-24T05:28:29.266Z,1013.55
2022-11-24T05:28:59.889Z,1013.56
2022-11-24T05:29:30.440Z,1013.56
2022-11-24T05:30:01.017Z,1013.56
2022-11-24T05:30:31.615Z,1013.58
2022-11-24T05:31:02.338Z,1013.57
2022-11-24T05:31:33.282Z,1013.58
2022-11-24T05:32:03.719Z,1013.59
2022-11-24T05:32:34.453Z,1013.60
2022-11-24T05:33:05.042Z,1013.60
2022-11-24T05:33:35.635Z,1013.60
2022-11-24T05:34:06.231Z,1013.61
2022-11-24T05:34:36.872Z,1013.63
2022-11-24T05:35:08.425Z,1013.65
2022-11-24T05:35:40.499Z,1013.64
2022-11-24T05:36:10.476Z,1013.67
2022-11-24T05:36:40.507Z,1013.65
2022-11-24T05:37:11.078Z,1013.65
2022-11-24T05:37:41.685Z,1013.67
2022-11-24T05:38:12.346Z,1013.70
2022-11-24T05:38:43.351Z,1013.68
2022-11-24T05:39:13.834Z,1013.69
2022-11-24T05:39:44.493Z,1013.68
2022-11-24T05:40:15.057Z,1013.68
2022-11-24T05:40:45.587Z,1013.68
2022-11-24T05:41:16.166Z,1013.68
2022-11-24T05:41:46.738Z,1013.68
2022-11-24T05:42:17.329Z,1013.69
2022-11-24T05:42:48.425Z,1013.68
2022-11-24T05:43:18.511Z,1013.74
2022-11-24T05:43:49.094Z,1013.74
2022-11-24T05:44:19.676Z,1013.69
2022-11-24T05:44:50.254Z,1013.70
2022-11-24T05:45:20.820Z,1013.69
2022-11-24T05:45:51.396Z,1013.71
2022-11-24T05:46:22.069Z,1013.72
2022-11-24T05:46:52.681Z,1013.73
2022-11-24T05:47:23.279Z,1013.73
2022-11-24T05:47:53.845Z,1013.75
2022-11-24T05:48:24.423Z,1013.76
2022-11-24T05:48:54.975Z,1013.77
2022-11-24T05:49:25.543Z,1013.76
2022-11-24T05:49:56.109Z,1013.79
2022-11-24T05:50:26.695Z,1013.78
2022-11-24T05:50:57.263Z,1013.79
2022-11-24T05:51:27.829Z,1013.77
2022-11-24T05:51:58.361Z,1013.77
2022-11-24T05:52:28.949Z,1013.78
2022-11-24T05:52:59.508Z,1013.82
2022-11-24T05:53:30.068Z,1013.80
2022-11-24T05:54:00.623Z,1013.80
2022-11-24T05:54:31.297Z,1013.84
2022-11-24T05:55:01.959Z,1013.81
2022-11-24T05:55:32.537Z,1013.80
2022-11-24T05:56:03.111Z,1013.83
2022-11-24T05:56:33.680Z,1013.82
2022-11-24T05:57:04.237Z,1013.82
2022-11-24T05:57:34.823Z,1013.84
2022-11-24T05:58:05.389Z,1013.82
2022-11-24T05:58:35.966Z,1013.84
2022-11-24T05:59:09.806Z,1013.85
2022-11-24T05:59:37.594Z,1013.84
2022-11-24T06:00:08.207Z,1013.84
2022-11-24T06:00:38.763Z,1013.82
2022-11-24T06:01:09.338Z,1013.83
2022-11-24T06:01:40.152Z,1013.81
2022-11-24T06:02:10.871Z,1013.83
2022-11-24T06:02:41.726Z,1013.83
2022-11-24T06:03:12.636Z,1013.82
2022-11-24T06:03:43.262Z,1013.81
2022-11-24T06:04:13.850Z,1013.81
2022-11-24T06:04:44.387Z,1013.80
2022-11-24T06:05:14.983Z,1013.82
2022-11-24T06:05:45.558Z,1013.80
2022-11-24T06:06:16.132Z,1013.80
2022-11-24T06:06:46.712Z,1013.81
2022-11-24T06:07:17.391Z,1013.79
2022-11-24T06:07:48.032Z,1013.77
2022-11-24T06:08:18.650Z,1013.79
2022-11-24T06:08:49.203Z,1013.78
2022-11-24T06:09:19.797Z,1013.80
2022-11-24T06:09:50.371Z,1013.77